Time;durP1;ratioP1;P1;durP2;ratioP2;P2;SDS_P1;SDS_P2;PMS_P1;PMS_P2;Temp;Humidity;BMP_temperature;BMP_pressure;BME280_temperature;BME280_humidity;BME280_pressure;Samples;Min_cycle;Max_cycle;Signal;HPM_P1;HPM_P2
2023/06/20 00:00:31;;;;;;;;;;;22.60;52.50;;;;;;6270397;28;20163;-72
2023/06/20 00:03:31;;;;;;;;;;;22.60;52.50;;;;;;6271120;28;19921;-71
2023/06/20 00:06:32;;;;;;;;;;;22.60;52.60;;;;;;6271226;28;19971;-72
2023/06/20 00:09:32;;;;;;;;;;;22.60;52.80;;;;;;6270742;28;19913;-72
2023/06/20 00:12:33;;;;;;;;;;;22.60;52.80;;;;;;6270726;28;19959;-72
2023/06/20 00:15:33;;;;;;;;;;;22.60;52.80;;;;;;6271006;28;20608;-72
2023/06/20 00:18:34;;;;;;;;;;;22.50;52.80;;;;;;6270085;28;19916;-71
2023/06/20 00:21:34;;;;;;;;;;;22.60;52.90;;;;;;6270394;28;20008;-71
2023/06/20 00:24:35;;;;;;;;;;;22.60;53.00;;;;;;6270221;28;19934;-72
2023/06/20 00:27:35;;;;;;;;;;;22.50;52.90;;;;;;6270289;28;19931;-71
2023/06/20 00:30:35;;;;;;;;;;;22.50;52.90;;;;;;6270559;28;20279;-71
2023/06/20 00:33:36;;;;;;;;;;;22.50;53.00;;;;;;6270250;28;19909;-72
2023/06/20 00:36:38;;;;;;;;;;;22.50;53.00;;;;;;6270148;28;19919;-71
2023/06/20 00:39:38;;;;;;;;;;;22.50;53.10;;;;;;6270038;28;20279;-72
2023/06/20 00:42:39;;;;;;;;;;;22.50;53.10;;;;;;6269991;28;19909;-72
2023/06/20 00:45:40;;;;;;;;;;;22.50;53.10;;;;;;6270241;28;20378;-72
2023/06/20 00:48:40;;;;;;;;;;;22.50;53.10;;;;;;6268182;28;20015;-71
2023/06/20 00:51:41;;;;;;;;;;;22.50;53.10;;;;;;6270419;28;19908;-72
2023/06/20 00:54:44;;;;;;;;;;;22.50;53.30;;;;;;6269487;28;20383;-72
2023/06/20 00:57:45;;;;;;;;;;;22.50;53.40;;;;;;6270232;28;19909;-72
2023/06/20 01:00:45;;;;;;;;;;;22.50;53.30;;;;;;6268898;28;19913;-72
2023/06/20 01:03:49;;;;;;;;;;;22.50;53.40;;;;;;6269507;28;20314;-71
2023/06/20 01:06:59;;;;;;;;;;;22.50;53.50;;;;;;6269598;28;20409;-72
2023/06/20 01:10:10;;;;;;;;;;;22.50;53.40;;;;;;6269258;28;19948;-71
2023/06/20 01:13:17;;;;;;;;;;;22.50;53.50;;;;;;6269530;28;19915;-71
2023/06/20 01:16:18;;;;;;;;;;;22.50;53.70;;;;;;6268957;28;19909;-72
2023/06/20 01:19:21;;;;;;;;;;;22.50;53.60;;;;;;6269144;28;19916;-71
2023/06/20 01:22:41;;;;;;;;;;;22.50;53.60;;;;;;6244000;28;19967;-71
2023/06/20 01:25:46;;;;;;;;;;;22.50;53.60;;;;;;6254451;28;20350;-71
2023/06/20 01:28:50;;;;;;;;;;;22.40;54.30;;;;;;6269332;28;20261;-71
2023/06/20 01:31:53;;;;;;;;;;;22.40;53.60;;;;;;6268943;28;19916;-71
2023/06/20 01:35:00;;;;;;;;;;;22.40;53.80;;;;;;6268682;28;19912;-71
2023/06/20 01:38:04;;;;;;;;;;;22.40;53.70;;;;;;6268926;28;19940;-72
2023/06/20 01:41:05;;;;;;;;;;;22.40;53.70;;;;;;6267333;28;19912;-72
2023/06/20 01:44:07;;;;;;;;;;;22.40;53.80;;;;;;6268362;28;19919;-71
2023/06/20 01:47:09;;;;;;;;;;;22.40;53.80;;;;;;6269127;28;19913;-71
2023/06/20 01:50:11;;;;;;;;;;;22.40;53.90;;;;;;6268895;28;19916;-72
2023/06/20 01:53:13;;;;;;;;;;;22.40;53.90;;;;;;6268548;28;19913;-72
2023/06/20 01:56:14;;;;;;;;;;;22.40;53.80;;;;;;6268440;28;19909;-71
2023/06/20 01:59:16;;;;;;;;;;;22.40;53.90;;;;;;6268210;28;19915;-71
2023/06/20 02:02:17;;;;;;;;;;;22.40;54.00;;;;;;6268385;28;19917;-71
2023/06/20 02:05:18;;;;;;;;;;;22.40;53.90;;;;;;6267874;28;19931;-72
2023/06/20 02:08:19;;;;;;;;;;;22.40;54.20;;;;;;6268720;28;20020;-72
2023/06/20 02:11:20;;;;;;;;;;;22.40;54.00;;;;;;6268161;28;20017;-71
2023/06/20 02:14:21;;;;;;;;;;;22.40;54.10;;;;;;6268016;28;20007;-71
2023/06/20 02:17:21;;;;;;;;;;;22.40;54.20;;;;;;6268223;28;19916;-72
2023/06/20 02:20:22;;;;;;;;;;;22.40;54.10;;;;;;6267993;28;19921;-71
2023/06/20 02:23:25;;;;;;;;;;;22.40;54.10;;;;;;6267742;28;20007;-72
2023/06/20 02:26:28;;;;;;;;;;;22.40;54.20;;;;;;6267635;28;19924;-72
2023/06/20 02:29:31;;;;;;;;;;;22.40;54.30;;;;;;6268431;28;19915;-72
2023/06/20 02:32:32;;;;;;;;;;;22.40;54.20;;;;;;6268042;28;20257;-72
2023/06/20 02:35:33;;;;;;;;;;;22.40;54.30;;;;;;6267453;28;19917;-72
2023/06/20 02:38:34;;;;;;;;;;;22.40;54.40;;;;;;6266708;28;19970;-72
2023/06/20 02:41:34;;;;;;;;;;;22.40;54.40;;;;;;6266821;28;20256;-72
2023/06/20 02:44:35;;;;;;;;;;;22.30;54.20;;;;;;6267738;28;20394;-72
2023/06/20 02:47:54;;;;;;;;;;;22.40;54.30;;;;;;6268068;28;19913;-72
2023/06/20 02:51:13;;;;;;;;;;;22.40;54.40;;;;;;6268174;28;19908;-72
2023/06/20 02:54:20;;;;;;;;;;;22.40;54.50;;;;;;6272565;28;19913;-72
2023/06/20 02:57:21;;;;;;;;;;;22.40;54.50;;;;;;6272765;28;19916;-72
2023/06/20 03:00:22;;;;;;;;;;;22.40;54.50;;;;;;6272362;28;20365;-73
2023/06/20 03:03:43;;;;;;;;;;;22.30;54.50;;;;;;6272307;28;20367;-72
2023/06/20 03:06:45;;;;;;;;;;;22.30;54.40;;;;;;6271698;28;20379;-72
2023/06/20 03:09:46;;;;;;;;;;;22.30;54.50;;;;;;6272002;28;19909;-72
2023/06/20 03:12:46;;;;;;;;;;;22.30;54.70;;;;;;6272259;28;20029;-72
2023/06/20 03:15:49;;;;;;;;;;;22.30;54.70;;;;;;6272138;28;19909;-72
2023/06/20 03:18:51;;;;;;;;;;;22.30;54.60;;;;;;6272250;28;19956;-72
2023/06/20 03:21:53;;;;;;;;;;;22.30;54.80;;;;;;6268822;28;19947;-72
2023/06/20 03:24:54;;;;;;;;;;;22.30;54.70;;;;;;6271858;28;19912;-72
2023/06/20 03:27:54;;;;;;;;;;;22.30;54.80;;;;;;6272192;28;19933;-72
2023/06/20 03:30:55;;;;;;;;;;;22.30;54.70;;;;;;6271904;28;19908;-72
2023/06/20 03:33:55;;;;;;;;;;;22.30;54.80;;;;;;6271904;28;19908;-72
2023/06/20 03:36:56;;;;;;;;;;;22.30;54.80;;;;;;6271338;28;19909;-72
2023/06/20 03:39:56;;;;;;;;;;;22.30;54.80;;;;;;6272012;28;20015;-73
2023/06/20 03:42:57;;;;;;;;;;;22.30;54.80;;;;;;6271870;28;19916;-72
2023/06/20 03:45:57;;;;;;;;;;;22.30;54.90;;;;;;6271323;28;19913;-72
2023/06/20 03:48:58;;;;;;;;;;;22.30;54.90;;;;;;6271500;28;20390;-72
2023/06/20 03:51:58;;;;;;;;;;;22.30;54.80;;;;;;6271246;28;19912;-72
2023/06/20 03:54:59;;;;;;;;;;;22.30;54.90;;;;;;6270097;28;19909;-72
2023/06/20 03:57:59;;;;;;;;;;;22.30;54.90;;;;;;6271150;28;19940;-72
2023/06/20 04:01:00;;;;;;;;;;;22.30;54.90;;;;;;6270810;28;20015;-72
2023/06/20 04:04:00;;;;;;;;;;;22.30;54.90;;;;;;6270402;28;19917;-72
2023/06/20 04:07:01;;;;;;;;;;;22.30;54.90;;;;;;6270882;28;19976;-72
2023/06/20 04:10:01;;;;;;;;;;;22.30;55.00;;;;;;6270954;28;20359;-72
2023/06/20 04:13:02;;;;;;;;;;;22.30;55.00;;;;;;6271158;28;19965;-72
2023/06/20 04:16:02;;;;;;;;;;;22.30;55.10;;;;;;6270755;28;19919;-72
2023/06/20 04:19:03;;;;;;;;;;;22.30;55.00;;;;;;6270905;28;20499;-72
2023/06/20 04:22:04;;;;;;;;;;;22.30;55.10;;;;;;6270637;28;20295;-73
2023/06/20 04:25:04;;;;;;;;;;;22.30;55.10;;;;;;6270553;28;19999;-72
2023/06/20 04:28:05;;;;;;;;;;;22.30;55.20;;;;;;6270043;28;19971;-72
2023/06/20 04:31:05;;;;;;;;;;;22.30;55.10;;;;;;6269919;28;20374;-72
2023/06/20 04:34:06;;;;;;;;;;;22.30;55.10;;;;;;6270063;28;19913;-72
2023/06/20 04:37:06;;;;;;;;;;;22.30;55.30;;;;;;6270391;28;19920;-72
2023/06/20 04:40:08;;;;;;;;;;;22.30;55.30;;;;;;6269613;28;19959;-71
2023/06/20 04:43:09;;;;;;;;;;;22.30;55.30;;;;;;6269599;28;19921;-72
2023/06/20 04:46:12;;;;;;;;;;;22.30;55.30;;;;;;6269934;28;19994;-72
2023/06/20 04:49:13;;;;;;;;;;;22.30;55.20;;;;;;6270410;28;19932;-72
2023/06/20 04:52:13;;;;;;;;;;;22.30;55.10;;;;;;6269737;28;20300;-72
2023/06/20 04:55:14;;;;;;;;;;;22.20;55.20;;;;;;6270489;28;19909;-72
2023/06/20 04:58:15;;;;;;;;;;;22.20;55.20;;;;;;6269534;28;19909;-72
2023/06/20 05:01:15;;;;;;;;;;;22.20;55.30;;;;;;6265944;28;19929;-72
2023/06/20 05:04:16;;;;;;;;;;;22.20;55.30;;;;;;6254794;28;19920;-72
2023/06/20 05:07:17;;;;;;;;;;;22.30;55.30;;;;;;6268049;28;19954;-72
2023/06/20 05:10:17;;;;;;;;;;;22.30;55.40;;;;;;6269690;28;20355;-72
2023/06/20 05:13:18;;;;;;;;;;;22.30;55.40;;;;;;6251040;28;20372;-71
2023/06/20 05:16:18;;;;;;;;;;;22.30;55.50;;;;;;6267489;28;19962;-71
2023/06/20 05:19:19;;;;;;;;;;;22.30;55.50;;;;;;6267941;28;19917;-72
2023/06/20 05:22:19;;;;;;;;;;;22.30;55.30;;;;;;6256313;28;19931;-71
2023/06/20 05:25:20;;;;;;;;;;;22.30;55.20;;;;;;6263911;28;19909;-71
2023/06/20 05:28:20;;;;;;;;;;;22.40;55.30;;;;;;6267947;28;19959;-72
2023/06/20 05:31:24;;;;;;;;;;;22.50;55.10;;;;;;6268115;28;19916;-72
2023/06/20 05:34:25;;;;;;;;;;;22.50;55.20;;;;;;6267774;28;19908;-72
2023/06/20 05:37:28;;;;;;;;;;;22.50;55.30;;;;;;6263774;28;19909;-72
2023/06/20 05:40:28;;;;;;;;;;;22.50;55.40;;;;;;6266745;28;19981;-72
2023/06/20 05:43:29;;;;;;;;;;;22.40;55.40;;;;;;6267155;28;19913;-72
2023/06/20 05:46:30;;;;;;;;;;;22.40;55.30;;;;;;6267255;28;19963;-72
2023/06/20 05:49:30;;;;;;;;;;;22.40;55.30;;;;;;6267228;28;20286;-72
2023/06/20 05:52:31;;;;;;;;;;;22.40;55.30;;;;;;6265587;28;19909;-72
2023/06/20 05:55:32;;;;;;;;;;;22.40;55.30;;;;;;6268769;28;22464;-72
2023/06/20 05:58:32;;;;;;;;;;;22.40;55.30;;;;;;6266901;28;20286;-72
2023/06/20 06:01:33;;;;;;;;;;;22.40;55.30;;;;;;6252381;28;20349;-72
2023/06/20 06:04:33;;;;;;;;;;;22.40;55.30;;;;;;6264606;28;19917;-72
2023/06/20 06:07:34;;;;;;;;;;;22.40;55.30;;;;;;6266862;28;19948;-72
2023/06/20 06:10:34;;;;;;;;;;;22.40;55.40;;;;;;6268980;28;19915;-72
2023/06/20 06:13:35;;;;;;;;;;;22.40;55.40;;;;;;6269755;28;19909;-72
2023/06/20 06:16:35;;;;;;;;;;;22.40;55.40;;;;;;6269248;28;20237;-72
2023/06/20 06:19:36;;;;;;;;;;;22.40;56.10;;;;;;6269177;28;19974;-72
2023/06/20 06:22:36;;;;;;;;;;;22.40;56.00;;;;;;6260178;28;20012;-72
2023/06/20 06:25:37;;;;;;;;;;;22.40;55.30;;;;;;6258023;28;20011;-72
2023/06/20 06:28:37;;;;;;;;;;;22.40;55.30;;;;;;6259934;28;19920;-72
2023/06/20 06:31:38;;;;;;;;;;;22.40;55.40;;;;;;6292438;28;19915;-72
2023/06/20 06:34:41;;;;;;;;;;;22.40;55.40;;;;;;6275836;28;19917;-73
2023/06/20 06:37:41;;;;;;;;;;;22.50;55.50;;;;;;6275828;28;19912;-72
2023/06/20 06:40:43;;;;;;;;;;;22.40;55.40;;;;;;6273948;28;19924;-72
2023/06/20 06:43:44;;;;;;;;;;;22.40;55.40;;;;;;6277405;28;20329;-71
2023/06/20 06:46:45;;;;;;;;;;;22.40;56.00;;;;;;6276616;28;19909;-71
2023/06/20 06:49:45;;;;;;;;;;;22.50;55.70;;;;;;6277198;28;19939;-71
2023/06/20 06:52:46;;;;;;;;;;;22.40;55.60;;;;;;6276866;28;20023;-71
2023/06/20 06:55:47;;;;;;;;;;;22.40;55.70;;;;;;6268768;28;19962;-72
2023/06/20 06:58:47;;;;;;;;;;;22.40;55.70;;;;;;6270738;28;19926;-72
2023/06/20 07:01:48;;;;;;;;;;;22.40;55.70;;;;;;6277581;28;19930;-72
2023/06/20 07:04:48;;;;;;;;;;;22.40;55.70;;;;;;6277322;28;19966;-72
2023/06/20 07:07:48;;;;;;;;;;;22.40;55.70;;;;;;6276452;28;20414;-72
2023/06/20 07:10:51;;;;;;;;;;;22.40;55.70;;;;;;6277829;28;20015;-71
2023/06/20 07:13:51;;;;;;;;;;;22.40;55.70;;;;;;6277601;28;19919;-72
2023/06/20 07:16:54;;;;;;;;;;;22.40;55.70;;;;;;6277353;28;20409;-72
2023/06/20 07:19:54;;;;;;;;;;;22.40;55.80;;;;;;6277790;28;20264;-72
2023/06/20 07:22:55;;;;;;;;;;;22.40;55.80;;;;;;6277529;28;20733;-71
2023/06/20 07:25:55;;;;;;;;;;;22.40;56.40;;;;;;6278016;28;20429;-72
2023/06/20 07:28:56;;;;;;;;;;;22.40;55.80;;;;;;6277794;28;19909;-72
2023/06/20 07:31:56;;;;;;;;;;;22.40;55.80;;;;;;6277860;28;19909;-71
2023/06/20 07:34:57;;;;;;;;;;;22.40;55.80;;;;;;6277513;28;19917;-71
2023/06/20 07:37:57;;;;;;;;;;;22.40;55.80;;;;;;6274719;28;19917;-72
2023/06/20 07:40:59;;;;;;;;;;;22.30;55.80;;;;;;6273692;28;19960;-71
2023/06/20 07:43:59;;;;;;;;;;;22.40;56.00;;;;;;6273438;28;19912;-72
2023/06/20 07:47:00;;;;;;;;;;;22.30;55.80;;;;;;6273560;28;20367;-72
2023/06/20 07:50:00;;;;;;;;;;;22.30;55.80;;;;;;6273074;28;19913;-71
2023/06/20 07:53:02;;;;;;;;;;;22.30;55.90;;;;;;6273328;28;19913;-71
2023/06/20 07:56:05;;;;;;;;;;;22.30;55.90;;;;;;6272915;28;19917;-72
2023/06/20 07:59:06;;;;;;;;;;;22.30;55.90;;;;;;6273554;28;19909;-72
2023/06/20 08:02:06;;;;;;;;;;;22.30;56.00;;;;;;6272619;28;20337;-71
2023/06/20 08:05:08;;;;;;;;;;;22.30;56.00;;;;;;6272688;28;19996;-71
2023/06/20 08:08:09;;;;;;;;;;;22.30;55.90;;;;;;6272744;28;19912;-71
2023/06/20 08:11:09;;;;;;;;;;;22.30;56.00;;;;;;6273075;28;19932;-71
2023/06/20 08:14:12;;;;;;;;;;;22.30;56.70;;;;;;6272383;28;20358;-71
2023/06/20 08:17:15;;;;;;;;;;;22.30;56.00;;;;;;6272573;28;19912;-72
2023/06/20 08:20:16;;;;;;;;;;;22.20;55.90;;;;;;6272233;28;19921;-72
2023/06/20 08:23:24;;;;;;;;;;;22.20;56.00;;;;;;6272073;28;20022;-71
2023/06/20 08:26:24;;;;;;;;;;;22.30;56.00;;;;;;6271571;28;19916;-71
2023/06/20 08:29:25;;;;;;;;;;;22.30;56.10;;;;;;6271756;28;19909;-71
2023/06/20 08:32:25;;;;;;;;;;;22.30;56.10;;;;;;6272067;28;20386;-72
2023/06/20 08:35:26;;;;;;;;;;;22.20;56.00;;;;;;6271602;28;19909;-72
2023/06/20 08:38:26;;;;;;;;;;;22.30;56.10;;;;;;6271640;28;20014;-73
2023/06/20 08:41:27;;;;;;;;;;;22.20;56.00;;;;;;6271755;28;19916;-71
2023/06/20 08:44:27;;;;;;;;;;;22.20;56.00;;;;;;6271437;28;19915;-73
2023/06/20 08:47:28;;;;;;;;;;;22.30;56.10;;;;;;6271541;28;19913;-72
2023/06/20 08:50:28;;;;;;;;;;;22.20;56.10;;;;;;6271308;28;19975;-72
2023/06/20 08:53:29;;;;;;;;;;;22.30;56.10;;;;;;6271331;28;19909;-72
2023/06/20 08:56:30;;;;;;;;;;;22.30;56.20;;;;;;6271108;28;19924;-72
2023/06/20 08:59:30;;;;;;;;;;;22.30;56.20;;;;;;6270628;28;19915;-71
2023/06/20 09:02:31;;;;;;;;;;;22.20;56.00;;;;;;6271126;28;19913;-71
2023/06/20 09:05:32;;;;;;;;;;;22.30;56.20;;;;;;6271126;28;20237;-72
2023/06/20 09:08:33;;;;;;;;;;;22.30;56.20;;;;;;6271397;28;20275;-72
2023/06/20 09:11:37;;;;;;;;;;;22.30;56.10;;;;;;6271169;28;19971;-72
2023/06/20 09:14:37;;;;;;;;;;;22.20;56.10;;;;;;6271199;28;19909;-71
2023/06/20 09:17:38;;;;;;;;;;;22.20;56.10;;;;;;6271337;28;19909;-71
2023/06/20 09:20:40;;;;;;;;;;;22.30;56.20;;;;;;6269908;28;19913;-72
2023/06/20 09:23:40;;;;;;;;;;;22.30;56.20;;;;;;6270845;28;19913;-71
2023/06/20 09:26:41;;;;;;;;;;;22.20;56.20;;;;;;6271288;28;20103;-72
2023/06/20 09:29:49;;;;;;;;;;;22.20;56.10;;;;;;6270776;28;19909;-72
2023/06/20 09:32:49;;;;;;;;;;;22.30;56.30;;;;;;6267143;28;19913;-71
2023/06/20 09:35:50;;;;;;;;;;;22.30;56.30;;;;;;6254809;28;20008;-72
2023/06/20 09:38:51;;;;;;;;;;;22.30;56.30;;;;;;6269349;28;19931;-71
2023/06/20 09:41:53;;;;;;;;;;;22.20;56.20;;;;;;6266422;28;19923;-71
2023/06/20 09:44:53;;;;;;;;;;;22.20;56.30;;;;;;6269411;28;20342;-72
2023/06/20 09:47:55;;;;;;;;;;;22.20;56.30;;;;;;6269663;28;19915;-72
2023/06/20 09:50:55;;;;;;;;;;;22.20;56.20;;;;;;6269534;28;20921;-72
2023/06/20 09:54:05;;;;;;;;;;;22.20;56.30;;;;;;6269110;28;19916;-72
2023/06/20 09:57:11;;;;;;;;;;;22.20;56.40;;;;;;6269797;28;19912;-71
2023/06/20 10:00:14;;;;;;;;;;;22.30;56.70;;;;;;6270164;28;19912;-71
2023/06/20 10:03:15;;;;;;;;;;;22.30;56.80;;;;;;6267604;28;20337;-71
2023/06/20 10:06:16;;;;;;;;;;;22.30;56.80;;;;;;6267026;28;19912;-72
2023/06/20 10:09:16;;;;;;;;;;;22.30;56.70;;;;;;6267895;28;19908;-71
2023/06/20 10:12:17;;;;;;;;;;;22.20;56.60;;;;;;6268120;28;20334;-72
2023/06/20 10:15:18;;;;;;;;;;;22.30;56.70;;;;;;6266973;28;19908;-72
2023/06/20 10:18:39;;;;;;;;;;;22.30;56.60;;;;;;6268632;28;19908;-70
2023/06/20 10:21:51;;;;;;;;;;;22.20;56.60;;;;;;6260598;28;19921;-70
2023/06/20 10:24:53;;;;;;;;;;;22.20;57.30;;;;;;6275742;28;19909;-70
2023/06/20 10:27:57;;;;;;;;;;;22.30;57.30;;;;;;6266015;28;19917;-70
2023/06/20 10:31:00;;;;;;;;;;;22.30;57.10;;;;;;6264699;28;19978;-71
2023/06/20 10:34:01;;;;;;;;;;;22.20;57.30;;;;;;6267536;28;20050;-70
2023/06/20 10:37:20;;;;;;;;;;;22.30;57.00;;;;;;6268559;28;20359;-71
2023/06/20 10:40:29;;;;;;;;;;;22.30;57.00;;;;;;6267242;28;19917;-71
2023/06/20 10:43:30;;;;;;;;;;;22.30;56.90;;;;;;6267990;28;19999;-71
2023/06/20 10:46:36;;;;;;;;;;;22.30;56.90;;;;;;6267277;28;19909;-71
2023/06/20 10:49:37;;;;;;;;;;;22.30;56.90;;;;;;6268898;28;19916;-71
2023/06/20 10:52:37;;;;;;;;;;;22.20;56.80;;;;;;6267235;28;19909;-71
2023/06/20 10:55:40;;;;;;;;;;;22.30;56.80;;;;;;6267286;28;19909;-70
2023/06/20 10:58:46;;;;;;;;;;;22.20;56.80;;;;;;6268209;28;19935;-71
2023/06/20 11:01:46;;;;;;;;;;;22.30;56.80;;;;;;6266993;28;19982;-71
2023/06/20 11:04:50;;;;;;;;;;;22.30;56.80;;;;;;6267886;28;19921;-71
2023/06/20 11:07:58;;;;;;;;;;;22.30;56.80;;;;;;6267526;28;20351;-71
2023/06/20 11:11:01;;;;;;;;;;;22.30;56.80;;;;;;6268002;28;19962;-70
2023/06/20 11:14:21;;;;;;;;;;;22.20;56.80;;;;;;6271138;28;19908;-71
2023/06/20 11:17:29;;;;;;;;;;;22.20;56.80;;;;;;6263467;28;19909;-71
2023/06/20 11:20:30;;;;;;;;;;;22.30;56.90;;;;;;6272408;28;20378;-71
2023/06/20 11:23:36;;;;;;;;;;;22.30;56.90;;;;;;6294185;28;19913;-71
2023/06/20 11:26:36;;;;;;;;;;;22.30;56.90;;;;;;6277647;28;19927;-71
2023/06/20 11:29:37;;;;;;;;;;;22.20;56.80;;;;;;6271809;28;20663;-71
2023/06/20 11:32:38;;;;;;;;;;;22.20;56.80;;;;;;6271492;28;19952;-71
2023/06/20 11:35:46;;;;;;;;;;;22.30;57.30;;;;;;6263424;28;20467;-70
2023/06/20 11:38:48;;;;;;;;;;;22.30;57.40;;;;;;6273423;28;19909;-71
2023/06/20 11:41:49;;;;;;;;;;;22.20;57.40;;;;;;6273028;28;20386;-70
2023/06/20 11:44:50;;;;;;;;;;;22.30;57.40;;;;;;6273173;28;19912;-70
2023/06/20 11:48:06;;;;;;;;;;;22.30;57.10;;;;;;6272924;28;19920;-70
2023/06/20 11:51:06;;;;;;;;;;;22.40;57.30;;;;;;6273368;28;20378;-70
2023/06/20 11:54:12;;;;;;;;;;;22.40;57.20;;;;;;6273032;28;19909;-71
2023/06/20 11:57:42;;;;;;;;;;;22.30;57.30;;;;;;6273023;28;19983;-71
2023/06/20 12:00:46;;;;;;;;;;;22.30;57.30;;;;;;6268539;28;20383;-71
2023/06/20 12:04:01;;;;;;;;;;;22.20;57.30;;;;;;6272725;28;20362;-71
2023/06/20 12:07:04;;;;;;;;;;;22.30;57.30;;;;;;6244333;28;19964;-71
2023/06/20 12:10:05;;;;;;;;;;;22.20;57.20;;;;;;6245557;28;19921;-71
2023/06/20 12:13:06;;;;;;;;;;;22.20;57.20;;;;;;6232608;28;19986;-71
2023/06/20 12:16:09;;;;;;;;;;;22.20;57.20;;;;;;6245176;28;20331;-71
2023/06/20 12:19:10;;;;;;;;;;;22.20;57.20;;;;;;6245059;28;19964;-71
2023/06/20 12:22:11;;;;;;;;;;;22.20;57.20;;;;;;6244649;28;19917;-71
2023/06/20 12:25:11;;;;;;;;;;;22.20;57.20;;;;;;6241123;28;20633;-71
2023/06/20 12:28:12;;;;;;;;;;;22.20;57.20;;;;;;6241576;28;20462;-70
2023/06/20 12:31:12;;;;;;;;;;;22.20;57.30;;;;;;6242792;28;19909;-70
2023/06/20 12:34:13;;;;;;;;;;;22.20;57.20;;;;;;6241863;28;20043;-71
2023/06/20 12:37:13;;;;;;;;;;;22.10;57.10;;;;;;6251402;28;19909;-70
2023/06/20 12:40:14;;;;;;;;;;;22.20;57.30;;;;;;6269679;28;19934;-70
2023/06/20 12:43:14;;;;;;;;;;;22.20;57.20;;;;;;6269017;28;19967;-72
2023/06/20 12:46:15;;;;;;;;;;;22.10;57.20;;;;;;6269452;28;19913;-70
2023/06/20 12:49:15;;;;;;;;;;;22.20;57.30;;;;;;6269426;28;19912;-70
2023/06/20 12:52:16;;;;;;;;;;;22.10;57.20;;;;;;6269687;28;20371;-70
2023/06/20 12:55:16;;;;;;;;;;;22.10;57.20;;;;;;6268805;28;19999;-71
2023/06/20 12:58:17;;;;;;;;;;;22.20;57.30;;;;;;6268923;28;19912;-71
2023/06/20 13:01:20;;;;;;;;;;;22.10;57.20;;;;;;6269372;28;19918;-71
2023/06/20 13:04:20;;;;;;;;;;;22.10;57.20;;;;;;6268292;28;20406;-71
2023/06/20 13:07:21;;;;;;;;;;;22.10;57.20;;;;;;6269218;28;19913;-71
2023/06/20 13:10:22;;;;;;;;;;;22.10;57.20;;;;;;6268761;28;19909;-71
2023/06/20 13:13:22;;;;;;;;;;;22.10;57.20;;;;;;6268622;28;20615;-71
2023/06/20 13:16:23;;;;;;;;;;;22.10;57.20;;;;;;6268568;28;19927;-71
2023/06/20 13:19:23;;;;;;;;;;;22.10;57.20;;;;;;6269853;28;19982;-71
2023/06/20 13:22:24;;;;;;;;;;;22.10;57.20;;;;;;6270798;28;19917;-72
2023/06/20 13:25:24;;;;;;;;;;;22.10;57.20;;;;;;6290402;28;19909;-71
2023/06/20 13:28:25;;;;;;;;;;;22.10;57.20;;;;;;6277999;28;19913;-70
2023/06/20 13:31:26;;;;;;;;;;;22.10;57.20;;;;;;6271119;28;19909;-71
2023/06/20 13:34:27;;;;;;;;;;;22.10;57.20;;;;;;6255650;28;19992;-70
2023/06/20 13:37:28;;;;;;;;;;;22.10;57.20;;;;;;6269193;28;19916;-71
2023/06/20 13:40:30;;;;;;;;;;;22.10;57.20;;;;;;6269954;28;19912;-71
2023/06/20 13:43:30;;;;;;;;;;;22.10;57.20;;;;;;6270454;28;20054;-71
2023/06/20 13:46:32;;;;;;;;;;;22.10;57.20;;;;;;6270329;28;19909;-72
2023/06/20 13:49:33;;;;;;;;;;;22.10;57.20;;;;;;6270634;28;19913;-72
2023/06/20 13:52:36;;;;;;;;;;;22.10;57.20;;;;;;6270536;28;20353;-71
2023/06/20 13:55:36;;;;;;;;;;;22.10;57.90;;;;;;6269805;28;20284;-71
2023/06/20 13:58:37;;;;;;;;;;;22.10;57.20;;;;;;6270128;28;19909;-71
2023/06/20 14:01:39;;;;;;;;;;;22.10;57.20;;;;;;6269785;28;19917;-71
2023/06/20 14:04:42;;;;;;;;;;;22.10;57.20;;;;;;6269035;28;20379;-71
2023/06/20 14:07:44;;;;;;;;;;;22.10;57.20;;;;;;6269451;28;19996;-71
2023/06/20 14:10:44;;;;;;;;;;;22.10;57.20;;;;;;6269787;28;19962;-71
2023/06/20 14:13:45;;;;;;;;;;;22.10;57.30;;;;;;6269566;28;19956;-71
2023/06/20 14:16:45;;;;;;;;;;;22.10;57.20;;;;;;6269491;28;19915;-71
2023/06/20 14:19:46;;;;;;;;;;;22.10;57.30;;;;;;6269288;28;19909;-71
2023/06/20 14:22:46;;;;;;;;;;;22.10;57.20;;;;;;6268825;28;19925;-71
2023/06/20 14:25:47;;;;;;;;;;;22.10;57.30;;;;;;6267284;28;19912;-71
2023/06/20 14:28:48;;;;;;;;;;;22.10;57.30;;;;;;6268525;28;19913;-71
2023/06/20 14:31:49;;;;;;;;;;;22.10;57.30;;;;;;6268570;28;20399;-71
2023/06/20 14:34:49;;;;;;;;;;;22.10;57.20;;;;;;6268632;28;19909;-71
2023/06/20 14:37:50;;;;;;;;;;;22.10;57.20;;;;;;6269274;28;20007;-71
2023/06/20 14:40:50;;;;;;;;;;;22.10;57.30;;;;;;6269534;28;19919;-71
2023/06/20 14:43:51;;;;;;;;;;;22.10;57.30;;;;;;6269424;28;19956;-71
2023/06/20 14:46:51;;;;;;;;;;;22.10;58.00;;;;;;6269443;28;19954;-72
2023/06/20 14:49:52;;;;;;;;;;;22.10;57.30;;;;;;6274136;28;19962;-71
2023/06/20 14:52:53;;;;;;;;;;;22.10;57.30;;;;;;6274089;28;19924;-71
2023/06/20 14:55:53;;;;;;;;;;;22.10;57.30;;;;;;6273909;28;19909;-70
2023/06/20 14:58:54;;;;;;;;;;;22.10;57.60;;;;;;6274681;28;20335;-71
2023/06/20 15:01:54;;;;;;;;;;;22.10;57.60;;;;;;6274053;28;19967;-70
2023/06/20 15:04:55;;;;;;;;;;;22.10;57.70;;;;;;6270863;28;19990;-71
2023/06/20 15:07:57;;;;;;;;;;;22.10;57.60;;;;;;6274273;28;19913;-70
2023/06/20 15:10:59;;;;;;;;;;;22.10;57.60;;;;;;6273981;28;19912;-71
2023/06/20 15:14:00;;;;;;;;;;;22.10;57.60;;;;;;6273352;28;19909;-72
2023/06/20 15:17:00;;;;;;;;;;;22.10;57.60;;;;;;6272795;28;19916;-71
2023/06/20 15:20:01;;;;;;;;;;;22.10;57.50;;;;;;6273589;28;19956;-71
2023/06/20 15:23:02;;;;;;;;;;;22.10;57.50;;;;;;6273672;28;20015;-72
2023/06/20 15:26:02;;;;;;;;;;;22.10;57.50;;;;;;6272786;28;20371;-71
2023/06/20 15:29:03;;;;;;;;;;;22.10;57.50;;;;;;6266946;28;20070;-71
2023/06/20 15:32:03;;;;;;;;;;;22.10;57.50;;;;;;6273474;28;19919;-71
2023/06/20 15:35:05;;;;;;;;;;;22.10;57.50;;;;;;6273050;28;19983;-71
2023/06/20 15:38:05;;;;;;;;;;;22.10;57.50;;;;;;6272848;28;19951;-71
2023/06/20 15:41:06;;;;;;;;;;;22.10;57.50;;;;;;6273024;28;19992;-71
2023/06/20 15:44:06;;;;;;;;;;;22.10;57.50;;;;;;6273000;28;20019;-71
2023/06/20 15:47:07;;;;;;;;;;;22.10;57.50;;;;;;6273134;28;20578;-72
2023/06/20 15:50:08;;;;;;;;;;;22.10;57.50;;;;;;6273347;28;19909;-71
2023/06/20 15:53:08;;;;;;;;;;;22.10;57.40;;;;;;6272379;28;20003;-71
2023/06/20 15:56:09;;;;;;;;;;;22.10;57.50;;;;;;6270480;28;19909;-71
2023/06/20 15:59:09;;;;;;;;;;;22.10;57.50;;;;;;6270302;28;19916;-72
2023/06/20 16:02:18;;;;;;;;;;;22.10;57.50;;;;;;6271019;28;19913;-71
2023/06/20 16:05:19;;;;;;;;;;;22.10;57.40;;;;;;6270584;28;19921;-71
2023/06/20 16:08:19;;;;;;;;;;;22.10;57.50;;;;;;6270657;28;19913;-71
2023/06/20 16:11:20;;;;;;;;;;;22.10;57.40;;;;;;6270911;28;19915;-71
2023/06/20 16:14:21;;;;;;;;;;;22.10;57.50;;;;;;6268962;28;19955;-71
2023/06/20 16:17:21;;;;;;;;;;;22.10;57.50;;;;;;6268808;28;19908;-71
2023/06/20 16:20:22;;;;;;;;;;;22.10;57.50;;;;;;6268430;28;19966;-71
2023/06/20 16:23:22;;;;;;;;;;;22.10;57.50;;;;;;6268684;28;19916;-71
2023/06/20 16:26:23;;;;;;;;;;;22.10;57.50;;;;;;6267776;28;19917;-71
2023/06/20 16:29:23;;;;;;;;;;;22.10;57.50;;;;;;6254026;28;19917;-70
2023/06/20 16:32:24;;;;;;;;;;;22.10;57.50;;;;;;6268481;28;20149;-71
2023/06/20 16:35:25;;;;;;;;;;;22.10;57.50;;;;;;6254646;28;20010;-71
2023/06/20 16:38:25;;;;;;;;;;;22.10;57.50;;;;;;6268399;28;19961;-71
2023/06/20 16:41:26;;;;;;;;;;;22.10;57.50;;;;;;6268150;28;20449;-70
2023/06/20 16:44:26;;;;;;;;;;;22.10;57.50;;;;;;6268137;28;19975;-72
2023/06/20 16:47:27;;;;;;;;;;;22.10;57.50;;;;;;6268363;28;19913;-71
2023/06/20 16:50:27;;;;;;;;;;;22.10;57.50;;;;;;6269115;28;19909;-71
2023/06/20 16:53:28;;;;;;;;;;;22.10;57.50;;;;;;6267683;28;20382;-71
2023/06/20 16:56:29;;;;;;;;;;;22.10;57.50;;;;;;6268038;28;19909;-72
2023/06/20 16:59:29;;;;;;;;;;;22.10;57.50;;;;;;6268120;28;19955;-71
2023/06/20 17:02:30;;;;;;;;;;;22.10;57.50;;;;;;6258750;28;20028;-71
2023/06/20 17:05:30;;;;;;;;;;;22.10;57.50;;;;;;6253776;28;19917;-71
2023/06/20 17:08:31;;;;;;;;;;;22.10;57.50;;;;;;6266341;28;19908;-71
2023/06/20 17:11:31;;;;;;;;;;;22.10;57.50;;;;;;6268094;28;19909;-71
2023/06/20 17:14:32;;;;;;;;;;;22.10;57.50;;;;;;6267252;28;19962;-71
2023/06/20 17:17:32;;;;;;;;;;;22.10;57.50;;;;;;6268014;28;20094;-71
2023/06/20 17:20:33;;;;;;;;;;;22.10;57.80;;;;;;6267649;28;20283;-71
2023/06/20 17:23:34;;;;;;;;;;;22.10;57.50;;;;;;6275155;28;19912;-70
2023/06/20 17:26:35;;;;;;;;;;;22.10;57.50;;;;;;6281958;28;19920;-70
2023/06/20 17:29:35;;;;;;;;;;;22.10;58.40;;;;;;6252584;28;19913;-71
2023/06/20 17:32:36;;;;;;;;;;;22.10;58.60;;;;;;6262860;28;19991;-71
2023/06/20 17:35:37;;;;;;;;;;;22.10;58.60;;;;;;6252819;28;19909;-71